createdAt,value
2016-10-14T00:00:36.914Z,91.42
2016-10-14T00:01:36.920Z,91.89
2016-10-14T00:02:36.943Z,91.71
2016-10-14T00:03:36.961Z,91.71
2016-10-14T00:04:51.899Z,91.52
2016-10-14T00:05:36.996Z,91.99
2016-10-14T00:06:37.018Z,91.99
2016-10-14T00:07:37.040Z,91.99
2016-10-14T00:08:37.056Z,91.52
2016-10-14T00:09:37.074Z,91.71
2016-10-14T00:10:37.102Z,91.8
2016-10-14T00:11:37.111Z,91.33
2016-10-14T00:12:37.135Z,91.71
2016-10-14T00:13:37.153Z,91.8
2016-10-14T00:14:37.172Z,91.89
2016-10-14T00:15:37.191Z,91.52
2016-10-14T00:16:37.214Z,91.71
2016-10-14T00:17:37.234Z,91.71
2016-10-14T00:18:37.248Z,91.99
2016-10-14T00:19:37.274Z,91.8
2016-10-14T00:20:52.213Z,91.99
2016-10-14T00:21:37.315Z,92.27
2016-10-14T00:22:37.334Z,92.37
2016-10-14T00:23:37.349Z,92.56
2016-10-14T00:24:37.378Z,92.23
2016-10-14T00:25:37.388Z,92.42
2016-10-14T00:26:37.407Z,92.32
2016-10-14T00:27:37.430Z,92.71
2016-10-14T00:28:37.453Z,93.13
2016-10-14T00:29:37.467Z,93.08
2016-10-14T00:30:37.484Z,93.18
2016-10-14T00:32:37.531Z,93.37
2016-10-14T00:34:37.566Z,93.94
2016-10-14T00:36:52.528Z,93.94
2016-10-14T00:37:37.624Z,94.42
2016-10-14T00:38:37.641Z,95.08
2016-10-14T00:39:37.662Z,94.98
2016-10-14T00:40:37.680Z,95.27
2016-10-14T00:41:37.712Z,95.36
2016-10-14T00:42:37.724Z,95.6
2016-10-14T00:43:37.741Z,95.7
2016-10-14T00:44:37.761Z,96.08
2016-10-14T00:45:37.781Z,95.89
2016-10-14T00:46:37.801Z,96.45
2016-10-14T00:47:37.820Z,96.64
2016-10-14T00:48:37.838Z,96.74
2016-10-14T00:49:37.857Z,96.83
2016-10-14T00:50:38.178Z,97.22
2016-10-14T00:51:37.899Z,97.22
2016-10-14T00:52:52.838Z,97.22
2016-10-14T00:53:37.938Z,97.69
2016-10-14T00:54:38.103Z,97.69
2016-10-14T00:55:37.977Z,98.35
2016-10-14T00:56:37.999Z,98.16
2016-10-14T00:57:38.015Z,98.54
2016-10-14T00:58:38.029Z,98.26
2016-10-14T00:59:38.050Z,98.73
2016-10-14T01:00:38.073Z,99.21
2016-10-14T01:01:38.094Z,99.3
2016-10-14T01:02:38.124Z,99.21
2016-10-14T01:03:38.384Z,99.21
2016-10-14T01:04:38.200Z,99.3
2016-10-14T01:05:38.166Z,99.77
2016-10-14T01:06:38.189Z,99.77
2016-10-14T01:07:53.127Z,99.68
2016-10-14T01:08:38.227Z,99.77
2016-10-14T01:09:38.246Z,99.99
2016-10-14T01:10:38.267Z,99.97
2016-10-14T01:11:38.282Z,99.99
2016-10-14T01:12:38.300Z,99.99
2016-10-14T01:13:38.318Z,99.91
2016-10-14T01:14:38.342Z,99.99
2016-10-14T01:15:38.366Z,99.99
2016-10-14T01:16:38.381Z,99.99
2016-10-14T01:17:38.396Z,99.99
2016-10-14T01:18:38.420Z,99.99
2016-10-14T01:21:38.477Z,99.99
2016-10-14T01:23:38.512Z,99.99
2016-10-14T01:24:38.535Z,99.99
2016-10-14T01:25:38.552Z,99.99
2016-10-14T01:26:38.575Z,99.99
2016-10-14T01:27:38.593Z,99.99
2016-10-14T01:28:38.609Z,99.99
2016-10-14T01:29:38.629Z,99.99
2016-10-14T01:30:38.644Z,99.99
2016-10-14T01:31:38.664Z,99.99
2016-10-14T01:32:38.687Z,99.99
2016-10-14T01:33:38.707Z,99.99
2016-10-14T01:35:38.744Z,99.99
2016-10-14T01:36:38.759Z,99.99
2016-10-14T01:37:38.780Z,99.99
2016-10-14T01:38:38.802Z,99.99
2016-10-14T01:39:53.741Z,99.99
2016-10-14T01:40:38.839Z,99.99
2016-10-14T01:41:38.861Z,99.99
2016-10-14T01:42:38.876Z,99.99
2016-10-14T01:43:38.893Z,99.99
2016-10-14T01:44:38.912Z,99.99
2016-10-14T01:45:38.934Z,99.99
2016-10-14T01:46:38.954Z,99.99
2016-10-14T01:47:38.970Z,99.99
2016-10-14T01:48:38.988Z,99.99
2016-10-14T01:49:39.006Z,99.99
2016-10-14T01:50:39.277Z,99.99
2016-10-14T01:51:39.044Z,99.99
2016-10-14T01:52:39.066Z,99.99
2016-10-14T01:54:39.103Z,99.99
2016-10-14T01:55:54.042Z,99.99
2016-10-14T01:56:39.137Z,99.99
2016-10-14T01:57:39.163Z,99.99
2016-10-14T01:58:39.177Z,99.99
2016-10-14T01:59:39.199Z,99.99
2016-10-14T02:00:39.215Z,99.99
2016-10-14T02:01:39.230Z,99.99
2016-10-14T02:02:39.253Z,99.99
2016-10-14T02:03:39.273Z,99.99
2016-10-14T02:04:39.292Z,99.99
2016-10-14T02:05:39.310Z,99.99
2016-10-14T02:06:39.325Z,99.99
2016-10-14T02:08:39.361Z,99.99
2016-10-14T02:09:39.381Z,99.99
2016-10-14T02:11:54.342Z,99.99
2016-10-14T02:12:39.440Z,99.99
2016-10-14T02:13:39.461Z,99.99
2016-10-14T02:14:39.500Z,99.99
2016-10-14T02:15:39.498Z,99.99
2016-10-14T02:16:39.514Z,99.99
2016-10-14T02:17:39.534Z,99.99
2016-10-14T02:18:39.554Z,99.99
2016-10-14T02:19:39.570Z,99.99
2016-10-14T02:20:39.589Z,99.99
2016-10-14T02:21:39.616Z,99.99
2016-10-14T02:22:39.630Z,99.99
2016-10-14T02:23:39.649Z,99.99
2016-10-14T02:25:39.682Z,99.99
2016-10-14T02:26:39.705Z,99.99
2016-10-14T02:27:54.893Z,99.99
2016-10-14T02:28:39.739Z,99.99
2016-10-14T02:29:39.758Z,99.99
2016-10-14T02:30:39.778Z,99.99
2016-10-14T02:31:39.799Z,99.99
2016-10-14T02:32:39.813Z,99.99
2016-10-14T02:33:39.832Z,99.99
2016-10-14T02:34:39.851Z,99.99
2016-10-14T02:35:39.872Z,99.99
2016-10-14T02:36:39.894Z,99.99
2016-10-14T02:37:39.905Z,99.99
2016-10-14T02:38:39.931Z,99.99
2016-10-14T02:39:39.946Z,99.99
2016-10-14T02:40:40.219Z,99.99
2016-10-14T02:41:39.982Z,99.99
2016-10-14T02:42:54.923Z,99.99
2016-10-14T02:43:40.023Z,99.99
2016-10-14T02:44:40.039Z,99.99
2016-10-14T02:45:40.056Z,99.99
2016-10-14T02:46:40.075Z,99.99
2016-10-14T02:47:40.093Z,99.99
2016-10-14T02:48:40.112Z,99.99
2016-10-14T02:49:40.131Z,99.99
2016-10-14T02:50:40.149Z,99.99
2016-10-14T02:51:40.172Z,99.99
2016-10-14T02:52:40.193Z,99.99
2016-10-14T02:53:40.206Z,99.99
2016-10-14T02:55:40.245Z,99.99
2016-10-14T02:56:40.259Z,99.99
2016-10-14T02:58:40.297Z,99.99
2016-10-14T02:59:40.318Z,99.99
2016-10-14T03:00:40.337Z,99.99
2016-10-14T03:01:40.353Z,99.99
2016-10-14T03:02:40.374Z,99.99
2016-10-14T03:03:40.394Z,99.99
2016-10-14T03:04:40.411Z,99.99
2016-10-14T03:05:40.432Z,99.99
2016-10-14T03:06:40.700Z,99.99
2016-10-14T03:07:40.467Z,99.99
2016-10-14T03:08:40.487Z,99.99
2016-10-14T03:10:40.520Z,99.99
2016-10-14T03:11:40.547Z,99.99
2016-10-14T03:12:40.560Z,99.99
2016-10-14T03:13:40.573Z,99.99
2016-10-14T03:14:55.516Z,99.99
2016-10-14T03:15:40.612Z,99.99
2016-10-14T03:16:40.632Z,99.99
2016-10-14T03:17:40.647Z,99.99
2016-10-14T03:18:40.670Z,99.99
2016-10-14T03:19:40.690Z,99.99
2016-10-14T03:20:40.707Z,99.99
2016-10-14T03:21:40.724Z,99.99
2016-10-14T03:22:40.742Z,99.99
2016-10-14T03:23:40.764Z,99.99
2016-10-14T03:24:40.779Z,99.99
2016-10-14T03:26:40.821Z,99.99
2016-10-14T03:28:40.852Z,99.99
2016-10-14T03:29:40.874Z,99.99
2016-10-14T03:30:56.059Z,99.99
2016-10-14T03:31:40.924Z,99.99
2016-10-14T03:32:40.924Z,99.99
2016-10-14T03:33:40.941Z,99.99
2016-10-14T03:34:40.963Z,99.99
2016-10-14T03:35:41.230Z,99.99
2016-10-14T03:36:40.998Z,99.99
2016-10-14T03:37:41.016Z,99.99
2016-10-14T03:38:41.036Z,99.99
2016-10-14T03:39:41.048Z,99.99
2016-10-14T03:40:41.071Z,99.99
2016-10-14T03:41:41.086Z,99.99
2016-10-14T03:42:41.105Z,99.99
2016-10-14T03:43:41.123Z,99.99
2016-10-14T03:44:41.396Z,99.99
2016-10-14T03:45:41.181Z,99.99
2016-10-14T03:46:56.101Z,99.99
2016-10-14T03:47:41.201Z,99.99
2016-10-14T03:48:41.217Z,99.99
2016-10-14T03:49:41.232Z,99.99
2016-10-14T03:50:41.249Z,99.99
2016-10-14T03:51:41.270Z,99.99
2016-10-14T03:52:41.290Z,99.99
2016-10-14T03:53:41.310Z,99.99
2016-10-14T03:54:41.325Z,99.99
2016-10-14T03:55:41.341Z,99.99
2016-10-14T03:56:41.368Z,99.99
2016-10-14T03:57:41.377Z,99.99
2016-10-14T03:58:41.399Z,99.99
2016-10-14T03:59:41.419Z,99.99
2016-10-14T04:00:41.433Z,99.99
2016-10-14T04:01:41.712Z,99.99
2016-10-14T04:02:56.390Z,99.99
2016-10-14T04:03:41.492Z,99.99
2016-10-14T04:04:41.508Z,99.99
2016-10-14T04:05:41.525Z,99.99
2016-10-14T04:06:41.543Z,99.99
2016-10-14T04:07:41.563Z,99.99
2016-10-14T04:08:41.579Z,99.99
2016-10-14T04:09:41.598Z,99.99
2016-10-14T04:10:41.613Z,99.99
2016-10-14T04:11:41.631Z,99.99
2016-10-14T04:15:41.709Z,99.99
2016-10-14T04:16:41.728Z,99.99
2016-10-14T04:17:56.662Z,99.99
2016-10-14T04:18:41.759Z,99.99
2016-10-14T04:19:41.779Z,99.99
2016-10-14T04:20:41.796Z,99.99
2016-10-14T04:21:41.819Z,99.99
2016-10-14T04:22:41.833Z,99.99
2016-10-14T04:23:41.847Z,99.99
2016-10-14T04:24:41.869Z,99.99
2016-10-14T04:25:41.890Z,99.99
2016-10-14T04:26:41.903Z,99.99
2016-10-14T04:27:41.923Z,99.99
2016-10-14T04:28:41.941Z,99.99
2016-10-14T04:29:41.960Z,99.99
2016-10-14T04:30:41.979Z,99.99
2016-10-14T04:31:41.996Z,99.99
2016-10-14T04:32:42.011Z,99.99
2016-10-14T04:33:42.028Z,99.99
2016-10-14T04:35:42.064Z,99.99
2016-10-14T04:36:42.081Z,99.99
2016-10-14T04:37:42.105Z,99.99
2016-10-14T04:38:42.123Z,99.99
2016-10-14T04:39:42.138Z,99.99
2016-10-14T04:40:42.164Z,99.99
2016-10-14T04:41:42.171Z,99.99
2016-10-14T04:42:42.191Z,99.99
2016-10-14T04:43:42.208Z,99.99
2016-10-14T04:44:42.227Z,99.99
2016-10-14T04:45:42.253Z,99.99
2016-10-14T04:47:42.281Z,99.99
2016-10-14T04:48:42.301Z,99.99
2016-10-14T04:49:57.238Z,99.99
2016-10-14T04:50:42.339Z,99.99
2016-10-14T04:51:42.351Z,99.99
2016-10-14T04:52:42.375Z,99.99
2016-10-14T04:53:42.390Z,99.99
2016-10-14T04:54:42.408Z,99.99
2016-10-14T04:55:42.428Z,99.99
2016-10-14T04:56:42.441Z,99.99
2016-10-14T04:57:42.460Z,99.99
2016-10-14T04:58:42.479Z,99.99
2016-10-14T04:59:42.500Z,99.99
2016-10-14T05:00:42.514Z,99.99
2016-10-14T05:01:42.533Z,99.99
2016-10-14T05:02:42.568Z,99.99
2016-10-14T05:03:42.566Z,99.99
2016-10-14T05:04:42.587Z,99.99
2016-10-14T05:05:57.525Z,99.99
2016-10-14T05:06:42.620Z,99.99
2016-10-14T05:07:42.644Z,99.99
2016-10-14T05:08:42.656Z,99.99
2016-10-14T05:09:42.673Z,99.99
2016-10-14T05:10:42.697Z,99.99
2016-10-14T05:11:42.716Z,99.99
2016-10-14T05:12:42.733Z,99.99
2016-10-14T05:13:42.997Z,99.99
2016-10-14T05:14:42.768Z,99.99
2016-10-14T05:15:43.032Z,99.99
2016-10-14T05:16:42.802Z,99.99
2016-10-14T05:17:42.819Z,99.99
2016-10-14T05:18:42.838Z,99.99
2016-10-14T05:19:42.855Z,99.99
2016-10-14T05:21:57.814Z,99.99
2016-10-14T05:22:42.913Z,99.99
2016-10-14T05:23:42.943Z,99.99
2016-10-14T05:24:42.948Z,99.99
2016-10-14T05:25:42.962Z,99.99
2016-10-14T05:26:42.979Z,99.99
2016-10-14T05:28:43.020Z,99.99
2016-10-14T05:29:43.033Z,99.99
2016-10-14T05:30:43.055Z,99.99
2016-10-14T05:31:43.323Z,99.99
2016-10-14T05:32:43.090Z,99.99
2016-10-14T05:33:43.104Z,99.99
2016-10-14T05:35:43.142Z,99.99
2016-10-14T05:36:43.157Z,99.99
2016-10-14T05:37:58.099Z,99.99
2016-10-14T05:38:43.194Z,99.99
2016-10-14T05:39:43.216Z,99.99
2016-10-14T05:40:43.238Z,99.99
2016-10-14T05:41:43.249Z,99.99
2016-10-14T05:42:43.272Z,99.99
2016-10-14T05:43:43.290Z,99.99
2016-10-14T05:44:43.304Z,99.99
2016-10-14T05:45:43.323Z,99.99
2016-10-14T05:46:43.339Z,99.99
2016-10-14T05:47:43.362Z,99.99
2016-10-14T05:49:43.396Z,99.99
2016-10-14T05:50:43.410Z,99.99
2016-10-14T05:52:58.372Z,99.99
2016-10-14T05:53:43.469Z,99.99
2016-10-14T05:54:43.485Z,99.99
2016-10-14T05:55:43.504Z,99.99
2016-10-14T05:56:43.522Z,99.99
2016-10-14T05:57:43.539Z,99.99
2016-10-14T05:58:43.554Z,99.99
2016-10-14T05:59:43.576Z,99.99
2016-10-14T06:01:43.610Z,99.99
2016-10-14T06:02:43.634Z,99.99
2016-10-14T06:03:43.649Z,99.99
2016-10-14T06:04:43.665Z,99.99
2016-10-14T06:05:43.685Z,99.99
2016-10-14T06:07:44.021Z,99.99
2016-10-14T06:08:43.742Z,99.99
2016-10-14T06:09:43.758Z,99.99
2016-10-14T06:10:43.776Z,99.99
2016-10-14T06:11:43.797Z,99.99
2016-10-14T06:12:43.812Z,99.99
2016-10-14T06:13:43.831Z,99.99
2016-10-14T06:14:43.852Z,99.99
2016-10-14T06:15:43.864Z,99.99
2016-10-14T06:16:43.887Z,99.99
2016-10-14T06:17:43.907Z,99.99
2016-10-14T06:18:43.924Z,99.99
2016-10-14T06:19:43.940Z,99.99
2016-10-14T06:21:43.982Z,99.99
2016-10-14T06:22:43.997Z,99.99
2016-10-14T06:23:44.019Z,99.99
2016-10-14T06:24:58.957Z,99.99
2016-10-14T06:25:44.054Z,99.99
2016-10-14T06:26:44.075Z,99.99
2016-10-14T06:27:44.096Z,99.99
2016-10-14T06:28:44.111Z,99.99
2016-10-14T06:29:44.131Z,99.99
2016-10-14T06:30:44.151Z,99.99
2016-10-14T06:31:44.167Z,99.99
2016-10-14T06:32:44.488Z,99.99
2016-10-14T06:33:44.205Z,99.99
2016-10-14T06:34:44.226Z,99.99
2016-10-14T06:35:44.241Z,99.99
2016-10-14T06:36:44.263Z,99.99
2016-10-14T06:37:44.282Z,99.99
2016-10-14T06:38:44.299Z,99.99
2016-10-14T06:39:44.319Z,99.99
2016-10-14T06:40:59.260Z,99.99
2016-10-14T06:41:44.359Z,99.99
2016-10-14T06:42:44.376Z,99.99
2016-10-14T06:43:44.395Z,99.99
2016-10-14T06:44:44.409Z,99.99
2016-10-14T06:45:44.435Z,99.99
2016-10-14T06:46:44.453Z,99.99
2016-10-14T06:47:44.474Z,99.99
2016-10-14T06:48:44.512Z,99.99
2016-10-14T06:49:44.511Z,99.99
2016-10-14T06:50:44.524Z,99.99
2016-10-14T06:51:44.548Z,99.99
2016-10-14T06:52:44.566Z,99.99
2016-10-14T06:53:44.579Z,99.99
2016-10-14T06:54:44.901Z,99.99
2016-10-14T06:55:44.625Z,99.99
2016-10-14T06:56:59.562Z,99.73
2016-10-14T06:57:44.660Z,99.63
2016-10-14T06:58:44.676Z,99.35
2016-10-14T06:59:44.697Z,99.44
2016-10-14T07:00:44.719Z,99.26
2016-10-14T07:01:44.737Z,98.87
2016-10-14T07:02:44.755Z,99.06
2016-10-14T07:03:44.778Z,98.68
2016-10-14T07:04:44.794Z,98.3
2016-10-14T07:05:44.818Z,98.4
2016-10-14T07:06:45.088Z,98.54
2016-10-14T07:07:44.854Z,97.78
2016-10-14T07:09:44.891Z,97.12
2016-10-14T07:10:44.915Z,96.45
2016-10-14T07:11:44.939Z,96.45
2016-10-14T07:12:59.877Z,96.74
2016-10-14T07:13:44.974Z,96.17
2016-10-14T07:14:45.000Z,95.98
2016-10-14T07:15:45.018Z,96.26
2016-10-14T07:16:45.034Z,96.03
2016-10-14T07:17:45.054Z,95.6
2016-10-14T07:18:45.074Z,96.22
2016-10-14T07:19:45.101Z,95.17
2016-10-14T07:20:45.119Z,95.46
2016-10-14T07:21:45.140Z,95.46
2016-10-14T07:22:45.166Z,95.12
2016-10-14T07:25:45.223Z,95.17
2016-10-14T07:26:45.244Z,95.55
2016-10-14T07:28:00.184Z,95.17
2016-10-14T07:28:45.288Z,94.98
2016-10-14T07:29:45.304Z,94.98
2016-10-14T07:30:45.323Z,94.89
2016-10-14T07:31:45.343Z,94.89
2016-10-14T07:32:45.369Z,94.98
2016-10-14T07:33:45.386Z,95.08
2016-10-14T07:34:45.407Z,94.42
2016-10-14T07:35:45.429Z,94.13
2016-10-14T07:36:45.445Z,94.23
2016-10-14T07:37:45.466Z,94.23
2016-10-14T07:38:45.486Z,94.03
2016-10-14T07:40:45.533Z,93.56
2016-10-14T07:41:45.548Z,93.65
2016-10-14T07:42:45.574Z,93.84
2016-10-14T07:43:45.589Z,93.65
2016-10-14T07:44:45.612Z,93.46
2016-10-14T07:45:45.631Z,93.56
2016-10-14T07:46:45.652Z,93.51
2016-10-14T07:47:45.679Z,93.08
2016-10-14T07:48:45.691Z,92.99
2016-10-14T07:49:45.714Z,93.04
2016-10-14T07:50:45.731Z,93.23
2016-10-14T07:51:45.757Z,92.56
2016-10-14T07:52:45.772Z,92.66
2016-10-14T07:53:46.042Z,92.46
2016-10-14T07:54:45.813Z,92.85
2016-10-14T07:55:45.836Z,92.46
2016-10-14T07:56:45.857Z,92.46
2016-10-14T07:58:45.894Z,91.61
2016-10-14T08:00:01.038Z,91.42
2016-10-14T08:00:45.939Z,91.42
2016-10-14T08:01:45.960Z,91.42
2016-10-14T08:02:45.981Z,91.61
2016-10-14T08:03:46.002Z,91.61
2016-10-14T08:04:46.018Z,91.23
2016-10-14T08:05:46.040Z,91.23
2016-10-14T08:06:46.064Z,90.47
2016-10-14T08:07:46.084Z,90.75
2016-10-14T08:08:46.101Z,91.13
2016-10-14T08:09:46.119Z,91.42
2016-10-14T08:10:46.144Z,90.7
2016-10-14T08:11:46.169Z,90.37
2016-10-14T08:12:46.253Z,90.19
2016-10-14T08:13:46.211Z,90.19
2016-10-14T08:14:46.227Z,90.47
2016-10-14T08:16:01.572Z,90.37
2016-10-14T08:16:46.272Z,90.09
2016-10-14T08:17:46.291Z,89.66
2016-10-14T08:18:46.314Z,90.61
2016-10-14T08:19:46.332Z,90.04
2016-10-14T08:20:46.351Z,89.47
2016-10-14T08:21:46.372Z,89.66
2016-10-14T08:22:46.399Z,89.47
2016-10-14T08:23:46.415Z,89.47
2016-10-14T08:24:46.438Z,89.37
2016-10-14T08:25:46.462Z,89.75
2016-10-14T08:26:46.478Z,89.18
2016-10-14T08:27:46.498Z,88.8
2016-10-14T08:28:46.523Z,88.42
2016-10-14T08:29:46.542Z,87.52
2016-10-14T08:30:46.570Z,87.42
2016-10-14T08:32:01.508Z,88.23
2016-10-14T08:32:46.606Z,87.99
2016-10-14T08:33:46.629Z,87.32
2016-10-14T08:34:46.651Z,87.23
2016-10-14T08:35:46.672Z,86.57
2016-10-14T08:36:46.693Z,86.85
2016-10-14T08:37:46.714Z,86.47
2016-10-14T08:38:46.735Z,87.04
2016-10-14T08:39:46.758Z,86.57
2016-10-14T08:40:46.776Z,86.57
2016-10-14T08:41:46.802Z,86.38
2016-10-14T08:42:46.821Z,86.85
2016-10-14T08:43:46.840Z,86.76
2016-10-14T08:44:46.864Z,86.09
2016-10-14T08:45:46.890Z,86.38
2016-10-14T08:46:47.112Z,85.52
2016-10-14T08:48:01.852Z,85.52
2016-10-14T08:48:46.955Z,85.33
2016-10-14T08:49:46.970Z,85.33
2016-10-14T08:50:46.999Z,85.8
2016-10-14T08:51:47.017Z,85.42
2016-10-14T08:52:47.042Z,85.66
2016-10-14T08:53:47.063Z,85.37
2016-10-14T08:54:47.336Z,84.89
2016-10-14T08:55:47.107Z,84.8
2016-10-14T08:56:47.124Z,85.18
2016-10-14T08:57:47.158Z,84.8
2016-10-14T08:58:47.168Z,85.37
2016-10-14T08:59:47.191Z,84.95
2016-10-14T09:00:47.214Z,85.08
2016-10-14T09:01:47.236Z,84.89
2016-10-14T09:03:02.180Z,85.28
2016-10-14T09:03:47.278Z,84.99
2016-10-14T09:05:47.321Z,84.42
2016-10-14T09:06:47.349Z,84.99
2016-10-14T09:07:47.371Z,84.99
2016-10-14T09:08:47.393Z,85.18
2016-10-14T09:09:47.412Z,84.61
2016-10-14T09:10:47.436Z,84.33
2016-10-14T09:11:47.462Z,84.42
2016-10-14T09:12:47.479Z,83.65
2016-10-14T09:13:47.500Z,83.75
2016-10-14T09:14:47.524Z,83.32
2016-10-14T09:16:47.569Z,82.56
2016-10-14T09:17:47.592Z,82.56
2016-10-14T09:18:47.612Z,82.75
2016-10-14T09:19:47.636Z,82.46
2016-10-14T09:20:47.658Z,82.18
2016-10-14T09:21:47.679Z,82.27
2016-10-14T09:22:47.713Z,82.18
2016-10-14T09:23:47.724Z,82.46
2016-10-14T09:24:47.747Z,82.03
2016-10-14T09:25:47.769Z,81.93
2016-10-14T09:26:47.794Z,80.88
2016-10-14T09:27:47.815Z,80.6
2016-10-14T09:28:47.840Z,80.31
2016-10-14T09:29:47.861Z,80.6
2016-10-14T09:30:47.881Z,80.12
2016-10-14T09:31:47.905Z,79.55
2016-10-14T09:32:47.928Z,79.17
2016-10-14T09:33:47.952Z,79.17
2016-10-14T09:35:02.897Z,79.3
2016-10-14T09:35:47.997Z,79.46
2016-10-14T09:36:48.022Z,79.64
2016-10-14T09:37:48.039Z,79.21
2016-10-14T09:38:48.067Z,78.83
2016-10-14T09:39:48.084Z,80.07
2016-10-14T09:40:48.110Z,79.21
2016-10-14T09:41:48.393Z,78.25
2016-10-14T09:42:48.406Z,78.35
2016-10-14T09:43:48.180Z,79.17
2016-10-14T09:44:48.205Z,79.07
2016-10-14T09:47:48.277Z,78.25
2016-10-14T09:48:48.543Z,78.83
2016-10-14T09:49:48.313Z,78.92
2016-10-14T09:51:03.261Z,78.44
2016-10-14T09:51:48.359Z,78.44
2016-10-14T09:52:48.383Z,77.4
2016-10-14T09:53:48.412Z,77.2
2016-10-14T09:54:48.433Z,77.53
2016-10-14T09:55:48.453Z,77.59
2016-10-14T09:56:48.478Z,77.11
2016-10-14T09:57:48.749Z,77.3
2016-10-14T09:58:48.528Z,77.78
2016-10-14T09:59:48.548Z,77.78
2016-10-14T10:00:48.569Z,77.97
2016-10-14T10:01:48.599Z,78.06
2016-10-14T10:03:48.641Z,78.25
2016-10-14T10:04:48.665Z,77.87
2016-10-14T10:05:48.682Z,78.54
2016-10-14T10:07:03.632Z,78.35
2016-10-14T10:07:48.731Z,78.35
2016-10-14T10:08:48.953Z,78.44
2016-10-14T10:09:48.777Z,78.25
2016-10-14T10:10:48.797Z,77.78
2016-10-14T10:11:48.824Z,77.2
2016-10-14T10:12:48.851Z,77.78
2016-10-14T10:13:48.866Z,77.69
2016-10-14T10:14:49.144Z,77.78
2016-10-14T10:15:48.916Z,77.69
2016-10-14T10:16:48.939Z,77.69
2016-10-14T10:17:48.964Z,77.59
2016-10-14T10:18:48.984Z,77.97
2016-10-14T10:20:49.030Z,77.69
2016-10-14T10:21:49.049Z,77.97
2016-10-14T10:23:03.999Z,78.16
2016-10-14T10:23:49.101Z,78.16
2016-10-14T10:24:49.127Z,77.87
2016-10-14T10:25:49.141Z,77.78
2016-10-14T10:26:49.166Z,77.49
2016-10-14T10:27:49.194Z,77.4
2016-10-14T10:28:49.209Z,78.25
2016-10-14T10:29:50.238Z,77.69
2016-10-14T10:31:49.284Z,77.78
2016-10-14T10:32:49.304Z,77.78
2016-10-14T10:33:49.325Z,77.69
2016-10-14T10:34:49.347Z,77.3
2016-10-14T10:35:49.374Z,77.78
2016-10-14T10:36:49.394Z,77.69
2016-10-14T10:38:04.340Z,77.11
2016-10-14T10:38:49.441Z,77.3
2016-10-14T10:39:49.460Z,77.97
2016-10-14T10:40:49.484Z,77.97
2016-10-14T10:41:49.504Z,78.25
2016-10-14T10:42:49.529Z,78.3
2016-10-14T10:43:49.551Z,77.82
2016-10-14T10:44:49.576Z,77.87
2016-10-14T10:45:49.596Z,78.1
2016-10-14T10:46:49.615Z,77.53
2016-10-14T10:47:49.648Z,77.91
2016-10-14T10:48:49.665Z,77.91
2016-10-14T10:50:49.706Z,77.25
2016-10-14T10:51:49.731Z,76.57
2016-10-14T10:52:49.772Z,76.39
2016-10-14T10:53:49.781Z,76.1
2016-10-14T10:54:49.801Z,76.48
2016-10-14T10:55:49.824Z,76.29
2016-10-14T10:56:50.101Z,76.39
2016-10-14T10:57:49.870Z,76.57
2016-10-14T10:58:49.889Z,75.91
2016-10-14T10:59:49.920Z,75.91
2016-10-14T11:00:49.937Z,76.1
2016-10-14T11:01:49.960Z,76.29
2016-10-14T11:02:49.981Z,76.48
2016-10-14T11:03:50.001Z,76.01
2016-10-14T11:04:50.025Z,76.39
2016-10-14T11:05:50.048Z,76.1
2016-10-14T11:06:50.069Z,76.01
2016-10-14T11:07:50.089Z,76.1
2016-10-14T11:08:50.118Z,76.39
2016-10-14T11:10:05.059Z,76.2
2016-10-14T11:10:50.158Z,76.39
2016-10-14T11:11:50.436Z,76.39
2016-10-14T11:12:50.203Z,76.2
2016-10-14T11:13:50.225Z,76.39
2016-10-14T11:14:50.249Z,76.1
2016-10-14T11:15:50.274Z,76.01
2016-10-14T11:16:50.293Z,76.2
2016-10-14T11:17:50.316Z,76.39
2016-10-14T11:18:50.344Z,75.81
2016-10-14T11:19:50.363Z,76.2
2016-10-14T11:20:50.383Z,76.39
2016-10-14T11:21:50.410Z,76.1
2016-10-14T11:22:50.732Z,76.48
2016-10-14T11:23:50.451Z,76.39
2016-10-14T11:26:05.420Z,76.1
2016-10-14T11:26:50.530Z,76.14
2016-10-14T11:27:50.541Z,76.04
2016-10-14T11:28:50.566Z,75.66
2016-10-14T11:29:50.587Z,76.52
2016-10-14T11:30:50.613Z,75.57
2016-10-14T11:31:50.637Z,75.34
2016-10-14T11:32:50.655Z,75.76
2016-10-14T11:33:50.931Z,75.28
2016-10-14T11:34:51.003Z,75.66
2016-10-14T11:35:50.724Z,76.14
2016-10-14T11:36:50.749Z,76.33
2016-10-14T11:37:50.772Z,75.76
2016-10-14T11:38:50.790Z,75.18
2016-10-14T11:39:50.822Z,75.18
2016-10-14T11:40:50.840Z,75.85
2016-10-14T11:42:05.781Z,75.18
2016-10-14T11:42:50.880Z,74.99
2016-10-14T11:43:50.902Z,74.9
2016-10-14T11:44:50.926Z,75.76
2016-10-14T11:45:50.948Z,74.52
2016-10-14T11:46:50.971Z,74.99
2016-10-14T11:47:50.997Z,74.71
2016-10-14T11:48:51.022Z,74.42
2016-10-14T11:49:51.039Z,74.8
2016-10-14T11:50:51.062Z,75.09
2016-10-14T11:51:51.089Z,75.18
2016-10-14T11:52:51.108Z,75.57
2016-10-14T11:53:51.128Z,75.09
2016-10-14T11:54:51.156Z,75.66
2016-10-14T11:55:51.176Z,75.47
2016-10-14T11:56:51.203Z,75.66
2016-10-14T11:58:06.145Z,75.57
2016-10-14T11:58:51.248Z,75.28
2016-10-14T11:59:51.266Z,75.57
2016-10-14T12:00:51.292Z,75.66
2016-10-14T12:01:51.316Z,75.09
2016-10-14T12:02:51.334Z,74.8
2016-10-14T12:03:51.355Z,75.47
2016-10-14T12:04:51.630Z,75.28
2016-10-14T12:05:51.402Z,75.57
2016-10-14T12:06:51.423Z,74.99
2016-10-14T12:07:51.450Z,74.9
2016-10-14T12:08:51.470Z,75.47
2016-10-14T12:09:51.491Z,75.18
2016-10-14T12:10:51.520Z,75.09
2016-10-14T12:11:51.542Z,75.28
2016-10-14T12:13:06.484Z,74.52
2016-10-14T12:13:51.585Z,74.61
2016-10-14T12:14:51.608Z,74.8
2016-10-14T12:15:51.638Z,74.52
2016-10-14T12:16:51.657Z,74.32
2016-10-14T12:17:51.680Z,74.9
2016-10-14T12:18:51.694Z,75.37
2016-10-14T12:19:51.723Z,74.9
2016-10-14T12:20:51.748Z,74.61
2016-10-14T12:21:51.765Z,75.28
2016-10-14T12:22:51.790Z,75.37
2016-10-14T12:23:51.819Z,75.32
2016-10-14T12:24:51.834Z,74.46
2016-10-14T12:25:51.857Z,74.55
2016-10-14T12:26:51.883Z,74.37
2016-10-14T12:27:51.902Z,74.46
2016-10-14T12:28:51.927Z,74.84
2016-10-14T12:29:51.951Z,74.17
2016-10-14T12:30:51.970Z,73.32
2016-10-14T12:31:51.996Z,73.12
2016-10-14T12:32:52.016Z,72.93
2016-10-14T12:33:52.036Z,72.74
2016-10-14T12:34:52.063Z,72.64
2016-10-14T12:36:52.104Z,72.36
2016-10-14T12:37:52.140Z,73.5
2016-10-14T12:38:52.152Z,73.32
2016-10-14T12:39:52.177Z,73.16
2016-10-14T12:40:52.196Z,72.97
2016-10-14T12:41:52.225Z,73.25
2016-10-14T12:42:52.243Z,73.07
2016-10-14T12:43:52.268Z,72.87
2016-10-14T12:45:07.262Z,72.87
2016-10-14T12:45:52.314Z,73.16
2016-10-14T12:46:52.343Z,72.78
2016-10-14T12:47:52.356Z,73.16
2016-10-14T12:48:52.386Z,73.54
2016-10-14T12:49:52.404Z,72.78
2016-10-14T12:50:52.430Z,72.97
2016-10-14T12:51:52.456Z,72.87
2016-10-14T12:52:52.483Z,71.92
2016-10-14T12:53:52.497Z,72.49
2016-10-14T12:55:52.546Z,72.97
2016-10-14T12:56:52.567Z,72.01
2016-10-14T13:01:07.584Z,72.49
2016-10-14T13:01:52.685Z,72.11
2016-10-14T13:02:52.705Z,71.63
2016-10-14T13:03:52.730Z,70.96
2016-10-14T13:04:52.751Z,70.96
2016-10-14T13:05:52.773Z,70.67
2016-10-14T13:06:52.802Z,71.06
2016-10-14T13:07:52.820Z,71.06
2016-10-14T13:08:52.844Z,70.87
2016-10-14T13:09:52.865Z,71.63
2016-10-14T13:10:52.894Z,71.72
2016-10-14T13:11:52.914Z,71.82
2016-10-14T13:12:52.936Z,71.63
2016-10-14T13:13:52.956Z,70.67
2016-10-14T13:14:52.983Z,70.39
2016-10-14T13:17:08.003Z,70.39
2016-10-14T13:17:53.054Z,70.39
2016-10-14T13:18:53.077Z,71.06
2016-10-14T13:19:53.096Z,71.25
2016-10-14T13:20:53.124Z,70.77
2016-10-14T13:21:53.142Z,70.87
2016-10-14T13:22:53.170Z,71.72
2016-10-14T13:23:53.196Z,71.63
2016-10-14T13:24:53.216Z,71.15
2016-10-14T13:25:53.236Z,70.67
2016-10-14T13:26:53.262Z,71.72
2016-10-14T13:27:53.281Z,70.77
2016-10-14T13:28:53.310Z,71.25
2016-10-14T13:29:53.331Z,70.67
2016-10-14T13:30:53.355Z,71.25
2016-10-14T13:31:53.373Z,71.63
2016-10-14T13:33:08.321Z,71.82
2016-10-14T13:33:53.420Z,71.63
2016-10-14T13:34:53.749Z,71.72
2016-10-14T13:35:53.466Z,70.58
2016-10-14T13:36:53.492Z,70.77
2016-10-14T13:37:53.516Z,70.87
2016-10-14T13:38:53.540Z,70.58
2016-10-14T13:39:53.561Z,70.67
2016-10-14T13:40:53.583Z,70.58
2016-10-14T13:41:53.607Z,70.67
2016-10-14T13:42:53.627Z,70.67
2016-10-14T13:43:53.660Z,70.67